Time;durP1;ratioP1;P1;durP2;ratioP2;P2;SDS_P1;SDS_P2;PMS_P1;PMS_P2;Temp;Humidity;BMP_temperature;BMP_pressure;BME280_temperature;BME280_humidity;BME280_pressure;Samples;Min_cycle;Max_cycle;Signal;HPM_P1;HPM_P2
2021/11/08 00:02:10;;;;;;;19.30;8.57;;;;;;;5.09;100.00;95780.19;5035736;28;20149;-78
2021/11/08 00:04:36;;;;;;;14.13;7.57;;;;;;;5.11;100.00;95786.75;5035446;28;20539;-77
2021/11/08 00:07:04;;;;;;;15.82;8.10;;;;;;;5.16;100.00;95778.28;5035506;28;20042;-78
2021/11/08 00:09:30;;;;;;;16.30;7.85;;;;;;;5.22;100.00;95787.78;5033840;28;20410;-78
2021/11/08 00:11:56;;;;;;;17.23;7.63;;;;;;;5.22;100.00;95785.19;5035008;28;20042;-77
2021/11/08 00:14:24;;;;;;;16.92;8.38;;;;;;;5.14;100.00;95790.72;5034577;28;20048;-78
2021/11/08 00:17:05;;;;;;;18.02;7.82;;;;;;;5.10;100.00;95784.38;5022797;28;20045;-78
2021/11/08 00:22:02;;;;;;;16.38;8.30;;;;;;;5.12;100.00;95787.56;5034107;28;20430;-78
2021/11/08 00:24:28;;;;;;;19.13;8.93;;;;;;;5.17;100.00;95779.84;5033592;28;20045;-77
2021/11/08 00:26:54;;;;;;;18.95;8.60;;;;;;;5.22;100.00;95798.22;5032522;28;20033;-77
2021/11/08 00:29:20;;;;;;;18.52;8.18;;;;;;;5.17;100.00;95791.09;5034431;28;20417;-78
2021/11/08 00:31:45;;;;;;;15.32;8.30;;;;;;;5.20;100.00;95800.25;5033898;28;20049;-76
2021/11/08 00:34:12;;;;;;;16.35;7.82;;;;;;;5.18;100.00;95797.09;5034425;28;20045;-76
2021/11/08 00:36:37;;;;;;;18.45;8.23;;;;;;;5.15;100.00;95793.09;5023190;28;20052;-76
2021/11/08 00:39:04;;;;;;;18.55;8.40;;;;;;;5.11;100.00;95797.19;5029259;28;20422;-77
2021/11/08 00:41:30;;;;;;;16.67;7.90;;;;;;;5.11;100.00;95802.41;5034194;28;20060;-78
2021/11/08 00:43:56;;;;;;;16.90;8.23;;;;;;;5.08;100.00;95791.66;5034144;28;20068;-77
2021/11/08 00:46:21;;;;;;;22.13;8.93;;;;;;;5.09;100.00;95808.91;5030793;28;20046;-76
2021/11/08 00:48:47;;;;;;;16.90;8.05;;;;;;;5.06;100.00;95809.31;5033960;28;20049;-78
2021/11/08 00:51:15;;;;;;;16.50;8.30;;;;;;;5.13;100.00;95815.22;5034251;28;20411;-78
2021/11/08 00:53:41;;;;;;;17.55;8.50;;;;;;;5.20;100.00;95813.28;5024864;28;20042;-78
2021/11/08 00:56:12;;;;;;;15.18;8.02;;;;;;;5.13;100.00;95810.00;5015353;28;20049;-77
2021/11/08 00:58:41;;;;;;;18.63;8.40;;;;;;;5.23;100.00;95810.25;5031700;28;20469;-78
2021/11/08 01:01:08;;;;;;;14.85;8.40;;;;;;;5.27;100.00;95800.94;5012009;28;20050;-76
2021/11/08 01:03:39;;;;;;;16.65;8.68;;;;;;;5.19;100.00;95809.13;5030732;28;20049;-77
2021/11/08 01:06:05;;;;;;;18.73;8.52;;;;;;;5.23;100.00;95805.03;5031246;28;20053;-77
2021/11/08 01:08:31;;;;;;;18.65;8.10;;;;;;;5.21;100.00;95812.28;5033528;28;20049;-78
2021/11/08 01:10:57;;;;;;;18.65;8.43;;;;;;;5.17;100.00;95817.16;5030530;28;20065;-77
2021/11/08 01:13:24;;;;;;;18.73;8.30;;;;;;;5.19;100.00;95819.56;5031902;28;20120;-77
2021/11/08 01:15:54;;;;;;;20.52;9.38;;;;;;;5.12;100.00;95824.09;5031212;28;20570;-76
2021/11/08 01:18:20;;;;;;;20.55;9.20;;;;;;;4.89;100.00;95820.44;5029373;28;20068;-79
2021/11/08 01:20:47;;;;;;;22.52;9.73;;;;;;;4.89;100.00;95820.44;5017842;28;20508;-78
2021/11/08 01:23:15;;;;;;;25.10;9.13;;;;;;;5.06;100.00;95825.78;5029401;28;20045;-76
2021/11/08 01:25:41;;;;;;;19.60;9.43;;;;;;;5.05;100.00;95823.41;5033145;28;20042;-77
2021/11/08 01:28:08;;;;;;;21.05;9.55;;;;;;;5.03;100.00;95819.19;5033186;28;20056;-77
2021/11/08 01:30:33;;;;;;;19.73;8.93;;;;;;;5.11;100.00;95825.88;5032952;28;20113;-79
2021/11/08 01:33:03;;;;;;;17.70;8.80;;;;;;;5.16;100.00;95826.00;5027345;28;20042;-77
2021/11/08 01:35:40;;;;;;;18.55;8.95;;;;;;;5.16;100.00;95820.00;5033173;28;20469;-77
2021/11/08 01:40:41;;;;;;;18.42;8.77;;;;;;;5.11;100.00;95822.50;5015699;28;20217;-78
2021/11/08 01:43:08;;;;;;;19.92;8.43;;;;;;;5.14;100.00;95816.81;5026426;28;20049;-78
2021/11/08 01:45:35;;;;;;;17.40;8.40;;;;;;;5.00;100.00;95822.25;5031109;28;20049;-77
2021/11/08 01:48:01;;;;;;;17.27;8.52;;;;;;;4.84;100.00;95825.53;5033726;28;20052;-78
2021/11/08 01:50:27;;;;;;;20.08;8.55;;;;;;;4.85;100.00;95829.72;5028295;28;20046;-78
2021/11/08 01:52:54;;;;;;;18.92;8.15;;;;;;;5.05;100.00;95828.63;5029384;28;20042;-78
2021/11/08 01:55:22;;;;;;;18.73;8.93;;;;;;;4.93;100.00;95837.22;5033889;28;20046;-79
2021/11/08 01:57:48;;;;;;;17.77;8.90;;;;;;;4.82;100.00;95824.97;5027817;28;20065;-77
2021/11/08 02:00:15;;;;;;;19.83;8.13;;;;;;;5.10;100.00;95832.16;5017651;28;20184;-78
2021/11/08 02:02:41;;;;;;;17.25;8.18;;;;;;;4.93;100.00;95831.19;5018464;28;20513;-79
2021/11/08 02:05:07;;;;;;;19.02;8.52;;;;;;;4.81;100.00;95825.97;5033623;28;20049;-79
2021/11/08 02:07:33;;;;;;;17.48;8.35;;;;;;;4.77;100.00;95832.66;5034281;28;20041;-78
2021/11/08 02:09:59;;;;;;;19.10;9.05;;;;;;;4.75;100.00;95829.50;5032507;28;20045;-79
2021/11/08 02:12:25;;;;;;;20.75;8.15;;;;;;;4.66;100.00;95837.63;5035666;28;20046;-77
2021/11/08 02:14:51;;;;;;;17.92;7.72;;;;;;;4.69;100.00;95846.81;5033074;28;20061;-78
2021/11/08 02:17:17;;;;;;;16.52;8.18;;;;;;;4.72;100.00;95840.38;5031368;28;20034;-78
2021/11/08 02:19:42;;;;;;;16.48;7.95;;;;;;;4.78;100.00;95842.06;5030377;28;20432;-79
2021/11/08 02:22:08;;;;;;;18.70;8.45;;;;;;;4.78;100.00;95844.69;5035851;28;20045;-78
2021/11/08 02:24:40;;;;;;;22.48;9.30;;;;;;;4.74;100.00;95838.31;5034153;28;20038;-77
2021/11/08 02:27:06;;;;;;;18.33;8.55;;;;;;;4.77;100.00;95843.09;5035282;28;20045;-79
2021/11/08 02:29:32;;;;;;;19.25;8.95;;;;;;;5.00;100.00;95847.56;5034254;28;20778;-77
2021/11/08 02:31:59;;;;;;;21.65;8.65;;;;;;;5.03;100.00;95837.47;5031544;28;20052;-78
2021/11/08 02:34:25;;;;;;;20.35;9.65;;;;;;;4.75;100.00;95839.91;5035605;28;20037;-79
2021/11/08 02:36:51;;;;;;;21.23;9.20;;;;;;;4.75;100.00;95850.34;5037405;28;20056;-78
2021/11/08 02:39:25;;;;;;;20.30;9.93;;;;;;;4.73;100.00;95852.41;5035743;28;20049;-77
2021/11/08 02:41:50;;;;;;;22.70;10.40;;;;;;;4.68;100.00;95843.44;5026527;28;20391;-77
2021/11/08 02:44:16;;;;;;;21.10;9.27;;;;;;;4.91;100.00;95847.06;5040544;28;20072;-77
2021/11/08 02:46:42;;;;;;;19.35;9.45;;;;;;;4.98;100.00;95847.75;5017026;28;20849;-78
2021/11/08 02:49:12;;;;;;;20.42;8.98;;;;;;;5.02;100.00;95848.91;5031724;28;20049;-78
2021/11/08 02:51:43;;;;;;;17.50;9.02;;;;;;;4.88;100.00;95850.13;5016689;28;20041;-78
2021/11/08 02:54:15;;;;;;;19.63;9.50;;;;;;;4.80;100.00;95847.88;5032727;28;20049;-77
2021/11/08 02:56:40;;;;;;;18.30;8.73;;;;;;;4.69;100.00;95842.38;5035333;28;20127;-78
2021/11/08 02:59:06;;;;;;;19.65;9.40;;;;;;;4.67;100.00;95834.00;5036638;28;20053;-78
2021/11/08 03:01:33;;;;;;;18.58;9.05;;;;;;;4.84;100.00;95833.34;5034473;28;20053;-78
2021/11/08 03:04:00;;;;;;;17.30;8.65;;;;;;;4.76;100.00;95844.91;5050125;28;20046;-77
2021/11/08 03:06:31;;;;;;;20.05;9.52;;;;;;;4.59;100.00;95847.34;5027859;28;20065;-78
2021/11/08 03:09:11;;;;;;;19.17;9.02;;;;;;;4.52;100.00;95838.84;5034469;28;20049;-78
2021/11/08 03:11:36;;;;;;;19.00;9.88;;;;;;;4.54;100.00;95834.22;5016631;28;20105;-78
2021/11/08 03:14:05;;;;;;;19.50;9.38;;;;;;;4.56;100.00;95842.59;5015029;28;20124;-79
2021/11/08 03:16:45;;;;;;;22.75;9.80;;;;;;;4.56;100.00;95837.38;5035585;28;20041;-79
2021/11/08 03:19:25;;;;;;;23.92;9.63;;;;;;;4.63;100.00;95832.06;5033549;28;20049;-78
2021/11/08 03:21:55;;;;;;;20.27;9.68;;;;;;;4.81;100.00;95834.59;5029449;28;20097;-77
2021/11/08 03:24:36;;;;;;;19.98;9.07;;;;;;;4.80;100.00;95840.06;5032353;28;20896;-77
2021/11/08 03:27:08;;;;;;;19.80;9.68;;;;;;;4.73;100.00;95841.97;5025947;28;20038;-79
2021/11/08 03:29:34;;;;;;;21.65;9.43;;;;;;;4.63;100.00;95848.50;5035283;28;20041;-78
2021/11/08 03:32:01;;;;;;;19.10;9.48;;;;;;;4.54;100.00;95842.03;5020965;28;20046;-78
2021/11/08 03:34:29;;;;;;;17.17;9.02;;;;;;;4.46;100.00;95848.34;5035372;28;20045;-79
2021/11/08 03:36:56;;;;;;;21.10;9.38;;;;;;;4.53;100.00;95852.69;5033976;28;20038;-78
2021/11/08 03:39:22;;;;;;;17.33;9.35;;;;;;;4.62;100.00;95851.34;5035457;28;20046;-78
2021/11/08 03:41:48;;;;;;;19.90;9.25;;;;;;;4.58;100.00;95861.41;5024923;28;20109;-78
2021/11/08 03:44:14;;;;;;;19.08;8.63;;;;;;;4.34;100.00;95852.72;5023165;28;20425;-78
2021/11/08 03:46:39;;;;;;;18.95;8.90;;;;;;;4.33;100.00;95859.72;5032776;28;20049;-78
2021/11/08 03:49:05;;;;;;;22.63;10.00;;;;;;;4.40;100.00;95858.88;5033537;28;20041;-79
2021/11/08 03:51:31;;;;;;;20.00;10.10;;;;;;;4.45;100.00;95856.38;5019112;28;20053;-78
2021/11/08 03:53:56;;;;;;;20.48;8.80;;;;;;;4.51;100.00;95860.69;5039414;28;20042;-78
2021/11/08 03:56:22;;;;;;;19.67;9.18;;;;;;;4.48;100.00;95855.94;5018644;28;20426;-78
2021/11/08 03:58:47;;;;;;;20.08;9.48;;;;;;;4.45;100.00;95856.38;5035058;28;20049;-78
2021/11/08 04:01:14;;;;;;;20.58;9.18;;;;;;;4.50;100.00;95864.34;5028246;28;20104;-78
2021/11/08 04:03:40;;;;;;;18.98;9.88;;;;;;;4.46;100.00;95857.97;5023824;28;20057;-79
2021/11/08 04:06:06;;;;;;;25.02;10.27;;;;;;;4.48;100.00;95871.56;5033581;28;20041;-79
2021/11/08 04:08:32;;;;;;;21.90;9.55;;;;;;;4.46;100.00;95874.41;5034155;28;20052;-79
2021/11/08 04:10:57;;;;;;;21.40;9.98;;;;;;;4.49;100.00;95871.34;5022901;28;20073;-78
2021/11/08 04:13:29;;;;;;;18.80;9.32;;;;;;;4.53;100.00;95874.31;5032987;28;20037;-78
2021/11/08 04:15:56;;;;;;;19.70;8.50;;;;;;;4.69;100.00;95873.66;5033084;28;20107;-77
2021/11/08 04:18:25;;;;;;;17.50;8.95;;;;;;;4.66;100.00;95871.50;5034559;28;20054;-79
2021/11/08 04:20:53;;;;;;;18.00;8.70;;;;;;;4.60;100.00;95864.59;5025272;28;20056;-78
2021/11/08 04:23:21;;;;;;;20.00;8.55;;;;;;;4.47;100.00;95864.78;5023267;28;20040;-77
2021/11/08 04:25:47;;;;;;;19.98;8.93;;;;;;;4.39;100.00;95867.69;5028765;28;20069;-78
2021/11/08 04:28:13;;;;;;;18.90;9.20;;;;;;;4.38;100.00;95869.47;5034084;28;20052;-78
2021/11/08 04:30:42;;;;;;;18.02;8.70;;;;;;;4.27;100.00;95871.03;5034472;28;20050;-79
2021/11/08 04:35:47;;;;;;;20.55;9.52;;;;;;;4.19;100.00;95873.94;5031877;28;20033;-79
2021/11/08 04:38:27;;;;;;;19.40;9.50;;;;;;;4.19;100.00;95873.16;5019029;28;20041;-78
2021/11/08 05:31:46;;;;;;;18.08;8.82;;;;;;;3.90;100.00;95906.75;5030419;28;20045;-78
2021/11/08 05:34:12;;;;;;;17.10;8.57;;;;;;;3.71;100.00;95904.13;5024878;28;20048;-78
2021/11/08 05:36:38;;;;;;;20.98;8.25;;;;;;;3.71;100.00;95919.75;5020801;28;20045;-78
2021/11/08 05:39:05;;;;;;;16.27;7.32;;;;;;;3.67;100.00;95915.19;5028653;28;20049;-78
2021/11/08 05:41:32;;;;;;;16.40;7.75;;;;;;;3.59;100.00;95917.06;5027863;28;20383;-77
2021/11/08 05:43:58;;;;;;;17.13;7.97;;;;;;;3.44;100.00;95919.19;5024469;28;20406;-78
2021/11/08 05:46:24;;;;;;;19.83;9.10;;;;;;;3.36;100.00;95927.25;5020619;28;20049;-79
2021/11/08 05:48:51;;;;;;;19.92;8.23;;;;;;;3.30;100.00;95928.91;5027402;28;20054;-76
2021/11/08 05:51:16;;;;;;;16.15;7.78;;;;;;;3.28;100.00;95926.53;5027371;28;20502;-77
2021/11/08 05:53:47;;;;;;;15.32;8.07;;;;;;;3.25;100.00;95926.16;5027515;28;20050;-76
2021/11/08 05:56:22;;;;;;;18.10;8.55;;;;;;;3.26;100.00;95920.75;5022844;28;20073;-77
2021/11/08 06:50:55;;;;;;;20.38;8.60;;;;;;;2.87;100.00;95982.41;5015692;28;20046;-78
2021/11/08 06:53:20;;;;;;;19.80;9.30;;;;;;;2.91;100.00;95977.59;5026477;28;20053;-76
2021/11/08 06:55:50;;;;;;;17.58;8.75;;;;;;;2.99;100.00;95979.94;5026627;28;20426;-77
2021/11/08 06:58:17;;;;;;;17.52;8.68;;;;;;;2.71;100.00;95983.69;5027198;28;20095;-77
2021/11/08 07:00:45;;;;;;;15.93;8.10;;;;;;;2.77;100.00;95992.47;5030440;28;20049;-76
2021/11/08 07:03:12;;;;;;;17.75;7.95;;;;;;;2.93;100.00;95986.78;5027259;28;20046;-75
2021/11/08 07:05:38;;;;;;;17.60;8.10;;;;;;;2.86;100.00;95988.63;5023778;28;20049;-75
2021/11/08 07:08:04;;;;;;;18.45;7.97;;;;;;;2.71;100.00;95994.06;5018173;28;20049;-76
2021/11/08 07:10:30;;;;;;;20.42;9.23;;;;;;;2.78;100.00;95988.84;5017667;28;20042;-77
2021/11/08 07:12:56;;;;;;;20.17;8.73;;;;;;;2.83;100.00;95977.84;5010494;28;20495;-77
2021/11/08 07:15:23;;;;;;;18.90;8.57;;;;;;;2.93;100.00;95989.38;5024311;28;20096;-77
2021/11/08 07:17:50;;;;;;;20.10;8.73;;;;;;;2.98;100.00;95993.16;5045947;28;20042;-77
2021/11/08 07:20:17;;;;;;;20.40;8.57;;;;;;;2.89;100.00;95996.00;5030283;28;20152;-78
2021/11/08 07:22:43;;;;;;;19.73;9.00;;;;;;;2.70;100.00;95991.69;5026464;28;20203;-77
2021/11/08 07:25:09;;;;;;;18.80;8.80;;;;;;;2.68;100.00;95993.72;5027579;28;20034;-78
2021/11/08 07:27:35;;;;;;;30.23;11.23;;;;;;;2.78;100.00;95992.25;5025750;28;20088;-79
2021/11/08 07:30:02;;;;;;;25.30;9.45;;;;;;;2.90;100.00;95992.41;5020003;28;20829;-77
2021/11/08 07:32:28;;;;;;;23.65;9.73;;;;;;;3.01;100.00;95992.75;5027546;28;20045;-77
2021/11/08 07:34:55;;;;;;;18.35;9.35;;;;;;;3.34;100.00;95996.94;5039719;28;20041;-78
2021/11/08 07:37:21;;;;;;;20.52;8.88;;;;;;;3.55;100.00;95996.56;5018842;28;20050;-78
2021/11/08 07:39:47;;;;;;;21.73;8.23;;;;;;;3.70;100.00;95990.25;5026622;28;20441;-77
2021/11/08 07:42:13;;;;;;;17.33;8.85;;;;;;;3.65;100.00;95993.50;5012747;28;20144;-77
2021/11/08 07:44:39;;;;;;;20.25;9.07;;;;;;;3.63;100.00;95991.09;5024348;28;20033;-77
2021/11/08 07:47:04;;;;;;;16.33;8.77;;;;;;;3.68;100.00;95997.44;5030230;28;20105;-77
2021/11/08 07:49:30;;;;;;;17.13;8.07;;;;;;;3.68;100.00;96000.06;5022596;28;20426;-75
2021/11/08 07:51:56;;;;;;;18.70;7.45;;;;;;;3.87;100.00;96000.91;5043644;28;20511;-76
2021/11/08 07:54:23;;;;;;;18.60;7.55;;;;;;;4.09;100.00;96004.69;5028321;28;20128;-77
2021/11/08 07:56:49;;;;;;;18.42;8.15;;;;;;;3.95;100.00;96009.25;5030720;28;20068;-76
2021/11/08 07:59:16;;;;;;;18.70;7.50;;;;;;;4.03;100.00;96004.78;5023927;28;20117;-76
2021/11/08 08:01:42;;;;;;;20.10;8.05;;;;;;;4.28;100.00;95997.69;5029623;28;20115;-77
2021/11/08 08:04:08;;;;;;;18.67;7.60;;;;;;;4.36;100.00;96003.63;5027962;28;20657;-77
2021/11/08 08:06:34;;;;;;;18.30;7.68;;;;;;;4.28;100.00;95996.88;5029472;28;20046;-78
2021/11/08 08:08:59;;;;;;;18.60;7.38;;;;;;;4.28;100.00;96004.69;5026879;28;20179;-78
2021/11/08 08:11:25;;;;;;;16.38;7.70;;;;;;;4.27;100.00;96001.31;5043453;28;20046;-77
2021/11/08 08:13:51;;;;;;;19.73;7.22;;;;;;;4.39;100.00;96003.97;5028507;28;20042;-77
2021/11/08 08:16:18;;;;;;;19.80;7.40;;;;;;;4.50;100.00;96002.47;5029950;28;20052;-76
2021/11/08 08:18:46;;;;;;;19.73;7.55;;;;;;;4.55;100.00;96017.44;5030523;28;20495;-77
2021/11/08 08:21:12;;;;;;;20.10;8.23;;;;;;;4.78;100.00;96007.13;5028881;28;20049;-76
2021/11/08 08:23:39;;;;;;;20.08;7.53;;;;;;;4.95;100.00;96012.53;5028591;28;20045;-78
2021/11/08 08:26:04;;;;;;;20.70;7.50;;;;;;;4.97;100.00;96007.91;5029490;28;20050;-76
2021/11/08 08:28:30;;;;;;;18.88;7.40;;;;;;;5.02;100.00;96012.47;5018072;28;20037;-75
2021/11/08 08:30:58;;;;;;;22.80;7.18;;;;;;;5.19;98.08;95994.38;5023254;28;20044;-76
2021/11/08 08:33:24;;;;;;;15.52;6.80;;;;;;;5.23;99.42;95992.91;5019674;28;20080;-76
2021/11/08 08:35:49;;;;;;;15.13;6.93;;;;;;;5.25;98.58;96001.28;5028216;28;20045;-77
2021/11/08 08:38:17;;;;;;;14.65;6.72;;;;;;;5.29;97.57;96002.44;5025229;28;20046;-79
2021/11/08 08:40:46;;;;;;;17.65;6.57;;;;;;;5.31;96.71;95997.78;5011383;28;20077;-76
2021/11/08 08:43:12;;;;;;;18.02;6.75;;;;;;;5.19;99.51;95991.75;5016023;28;20125;-78
2021/11/08 08:45:38;;;;;;;14.48;6.22;;;;;;;5.36;97.57;96003.16;5027859;28;20049;-76
2021/11/08 08:48:06;;;;;;;15.45;5.93;;;;;;;5.37;96.41;96003.94;5029177;28;20049;-76
2021/11/08 08:50:32;;;;;;;13.20;6.57;;;;;;;5.22;98.35;96006.97;5029834;28;20486;-76
2021/11/08 08:52:58;;;;;;;17.33;6.43;;;;;;;5.41;96.55;96004.28;5029089;28;20487;-78
2021/11/08 08:55:23;;;;;;;15.75;6.20;;;;;;;5.26;94.74;96005.50;5029299;28;20041;-77
2021/11/08 08:57:50;;;;;;;25.77;6.72;;;;;;;5.25;97.37;96014.34;5027401;28;20515;-76
2021/11/08 09:00:18;;;;;;;20.25;7.25;;;;;;;5.20;98.43;96008.97;5022505;28;20049;-78
2021/11/08 09:02:44;;;;;;;19.38;6.35;;;;;;;5.08;96.52;96016.78;5016465;28;20080;-78
2021/11/08 09:05:10;;;;;;;19.73;6.60;;;;;;;5.21;96.43;96015.81;5027997;28;20069;-79
2021/11/08 09:07:37;;;;;;;18.83;6.70;;;;;;;5.44;96.62;96009.06;5025528;28;20041;-77
2021/11/08 09:10:04;;;;;;;18.48;6.25;;;;;;;5.58;95.08;96010.44;5019483;28;20049;-78
2021/11/08 09:12:30;;;;;;;18.13;5.72;;;;;;;5.62;92.79;96011.59;5027337;28;20116;-76
2021/11/08 09:14:56;;;;;;;19.10;6.25;;;;;;;5.67;94.00;96014.31;5027024;28;20033;-76
2021/11/08 09:17:21;;;;;;;16.67;5.82;;;;;;;5.96;94.16;96011.84;5022126;28;20088;-76
2021/11/08 09:19:47;;;;;;;14.43;6.38;;;;;;;5.85;91.70;96020.47;5020123;28;20113;-76
2021/11/08 09:22:13;;;;;;;17.83;6.38;;;;;;;6.06;92.88;96017.34;5018972;28;20052;-76
2021/11/08 09:24:40;;;;;;;20.42;6.95;;;;;;;6.13;93.06;96016.41;5023120;28;20495;-76
2021/11/08 09:27:07;;;;;;;15.20;6.00;;;;;;;6.31;92.38;96023.34;5018827;28;20204;-75
2021/11/08 09:29:33;;;;;;;17.27;5.00;;;;;;;6.63;87.29;96023.72;5025789;28;20052;-76
2021/11/08 09:31:58;;;;;;;19.98;5.85;;;;;;;7.95;82.22;96020.25;5025681;28;20045;-76
2021/11/08 09:34:24;;;;;;;18.52;5.70;;;;;;;9.46;78.33;96022.56;5027948;28;20041;-77
2021/11/08 09:36:52;;;;;;;16.17;4.75;;;;;;;9.82;74.43;96025.50;5029404;28;20060;-76
2021/11/08 09:39:24;;;;;;;11.55;4.88;;;;;;;10.41;71.52;96013.28;5029992;28;20136;-76
2021/11/08 09:41:52;;;;;;;13.82;4.40;;;;;;;10.78;69.37;96019.50;5025937;28;20056;-77
2021/11/08 09:44:19;;;;;;;16.67;5.28;;;;;;;10.99;67.87;96015.09;5028096;28;20067;-76
2021/11/08 09:46:45;;;;;;;11.77;5.30;;;;;;;11.60;66.39;96025.75;5028177;28;20048;-76
2021/11/08 09:49:11;;;;;;;20.25;5.78;;;;;;;10.42;72.30;96014.88;5028255;28;20042;-76
2021/11/08 09:51:42;;;;;;;15.40;5.82;;;;;;;8.09;81.16;96026.75;5022279;28;20487;-77
2021/11/08 09:54:10;;;;;;;13.45;5.82;;;;;;;6.67;87.09;96032.69;5025215;28;20044;-77
2021/11/08 09:56:39;;;;;;;17.92;7.15;;;;;;;6.26;88.85;96031.06;5026098;28;21691;-77
2021/11/08 09:59:05;;;;;;;16.95;5.90;;;;;;;6.39;88.96;96030.81;5030735;28;20045;-77
2021/11/08 10:01:35;;;;;;;14.82;5.53;;;;;;;6.87;87.50;96026.28;5028079;28;20056;-77
2021/11/08 10:04:01;;;;;;;20.00;6.10;;;;;;;6.49;88.67;96035.47;5025033;28;20121;-80
2021/11/08 10:06:28;;;;;;;12.27;5.85;;;;;;;6.54;89.31;96038.19;5027070;28;20041;-80
2021/11/08 10:08:54;;;;;;;17.90;5.70;;;;;;;6.68;89.61;96039.53;5029316;28;20511;-80
2021/11/08 10:11:20;;;;;;;19.20;5.65;;;;;;;6.27;88.54;96032.66;5009858;28;20046;-80
2021/11/08 10:13:47;;;;;;;18.98;5.72;;;;;;;6.26;91.69;96037.06;5009279;28;20719;-80
2021/11/08 10:16:32;;;;;;;19.65;5.75;;;;;;;6.28;92.63;96040.28;5025312;28;20391;-80
2021/11/08 10:19:00;;;;;;;14.80;5.63;;;;;;;6.10;92.18;96032.56;5027939;28;20042;-80
2021/11/08 10:21:39;;;;;;;18.35;6.03;;;;;;;6.11;94.39;96034.16;5025330;28;20048;-77
2021/11/08 10:24:11;;;;;;;18.20;5.43;;;;;;;6.01;92.98;96035.50;5024049;28;20041;-76
2021/11/08 10:26:37;;;;;;;17.48;5.30;;;;;;;6.20;91.42;96038.78;5024575;28;20120;-76
2021/11/08 10:29:07;;;;;;;14.40;5.25;;;;;;;5.64;92.90;96035.66;5014040;28;20046;-78
2021/11/08 10:31:39;;;;;;;15.75;5.60;;;;;;;5.83;93.37;96043.41;5018654;28;20052;-76
2021/11/08 10:34:09;;;;;;;23.20;5.82;;;;;;;5.99;92.36;96037.56;5028203;28;20064;-78
2021/11/08 10:36:35;;;;;;;22.20;5.90;;;;;;;5.77;91.82;96039.09;5022959;28;20487;-77
2021/11/08 10:39:03;;;;;;;18.17;5.00;;;;;;;5.49;92.02;96035.31;5031398;28;20052;-77
2021/11/08 10:41:42;;;;;;;21.15;5.22;;;;;;;5.47;91.63;96026.88;5034385;28;20056;-78
2021/11/08 10:44:12;;;;;;;18.60;5.53;;;;;;;5.71;94.66;96041.56;5039679;28;20045;-75
2021/11/08 10:46:42;;;;;;;18.17;5.18;;;;;;;5.71;93.96;96036.34;5028626;28;20053;-76
2021/11/08 10:49:15;;;;;;;20.50;6.13;;;;;;;5.53;92.24;96033.81;5029358;28;20045;-76
2021/11/08 10:51:43;;;;;;;19.20;5.07;;;;;;;5.61;92.53;96036.09;5033075;28;20805;-76
2021/11/08 10:54:16;;;;;;;21.60;4.68;;;;;;;5.85;92.04;96046.59;5030302;28;20294;-77
2021/11/08 10:56:47;;;;;;;17.10;4.57;;;;;;;6.10;88.94;96038.56;5028844;28;20038;-78
2021/11/08 10:59:15;;;;;;;16.85;4.97;;;;;;;5.87;91.23;96034.09;5031169;28;20049;-77
2021/11/08 11:01:43;;;;;;;21.58;5.20;;;;;;;5.83;93.41;96032.94;5043577;28;20053;-77
2021/11/08 11:04:09;;;;;;;19.17;4.60;;;;;;;5.71;93.56;96036.34;5025114;28;20065;-76
2021/11/08 11:06:38;;;;;;;21.55;4.63;;;;;;;5.73;93.16;96043.94;5028983;28;20556;-79
2021/11/08 11:09:14;;;;;;;18.17;4.70;;;;;;;5.62;93.74;96037.69;5026405;28;20049;-78
2021/11/08 11:11:41;;;;;;;15.73;4.35;;;;;;;5.52;89.56;96027.81;5030783;28;20048;-78
2021/11/08 11:14:07;;;;;;;20.45;4.70;;;;;;;5.63;93.78;96034.09;5029576;28;20117;-77
2021/11/08 11:16:46;;;;;;;22.63;5.57;;;;;;;5.64;90.56;96019.97;5030666;28;20360;-77
2021/11/08 11:19:15;;;;;;;16.90;5.07;;;;;;;5.68;92.18;96023.75;5019312;28;20046;-77
2021/11/08 11:21:57;;;;;;;17.80;4.97;;;;;;;5.76;93.08;96016.59;5016967;28;20045;-77
2021/11/08 11:24:49;;;;;;;21.25;5.03;;;;;;;5.77;93.15;96012.97;5028902;28;20045;-77
2021/11/08 11:27:29;;;;;;;22.33;5.13;;;;;;;6.01;92.63;96004.16;5026081;28;20042;-78
2021/11/08 11:30:18;;;;;;;16.45;4.72;;;;;;;6.04;92.56;96014.13;5025911;28;20041;-77
2021/11/08 11:32:44;;;;;;;16.17;4.85;;;;;;;6.15;89.07;96003.91;5028080;28;20033;-77
2021/11/08 11:35:20;;;;;;;20.13;5.57;;;;;;;6.67;88.67;96006.56;5027980;28;20473;-77
2021/11/08 11:37:56;;;;;;;12.73;4.35;;;;;;;7.39;84.01;95997.38;5026252;28;20045;-76
2021/11/08 11:40:23;;;;;;;16.90;4.57;;;;;;;7.33;84.60;95998.31;5035719;28;20095;-77
2021/11/08 11:42:52;;;;;;;14.93;4.30;;;;;;;8.48;82.47;96008.41;5027502;28;20415;-78
2021/11/08 11:45:19;;;;;;;19.95;4.93;;;;;;;9.62;78.53;96002.47;5027989;28;20120;-76
2021/11/08 11:48:05;;;;;;;14.90;4.07;;;;;;;9.12;73.48;96004.41;5031019;28;20122;-77
2021/11/08 11:50:33;;;;;;;12.57;3.53;;;;;;;9.28;75.17;95999.28;5045542;28;20053;-76
2021/11/08 11:52:59;;;;;;;16.77;3.80;;;;;;;9.93;72.60;95999.28;5020146;28;20100;-81
2021/11/08 11:55:26;;;;;;;16.85;3.80;;;;;;;11.48;66.42;95990.94;5016342;28;20111;-76
2021/11/08 11:57:55;;;;;;;15.65;3.67;;;;;;;11.21;65.92;95991.97;5025651;28;20037;-76
2021/11/08 12:00:24;;;;;;;15.57;3.53;;;;;;;12.60;63.45;95991.84;5027096;28;20517;-75
2021/11/08 12:02:54;;;;;;;13.30;3.47;;;;;;;11.75;56.50;95987.25;5028579;28;20040;-75
2021/11/08 12:05:21;;;;;;;17.15;3.65;;;;;;;11.11;63.99;95991.94;5027361;28;20073;-74
2021/11/08 12:07:51;;;;;;;12.25;3.20;;;;;;;10.45;61.92;95984.63;5028907;28;20042;-75
2021/11/08 12:10:17;;;;;;;12.10;3.15;;;;;;;11.70;60.37;95982.00;5029255;28;20535;-75
2021/11/08 12:12:43;;;;;;;16.15;3.05;;;;;;;10.80;64.01;95978.69;5042322;28;20067;-79
2021/11/08 12:15:09;;;;;;;14.57;3.67;;;;;;;12.01;57.86;95974.06;5020987;28;20099;-76
2021/11/08 12:17:40;;;;;;;10.00;3.40;;;;;;;12.73;59.37;95965.91;5041339;28;20510;-75
2021/11/08 12:20:10;;;;;;;12.75;3.92;;;;;;;12.40;58.27;95962.91;5025799;28;20068;-75
2021/11/08 12:22:36;;;;;;;12.88;3.67;;;;;;;12.83;54.73;95965.88;5019055;28;20104;-75
2021/11/08 12:25:15;;;;;;;14.48;3.55;;;;;;;11.80;59.37;95960.88;5024602;28;20030;-78
2021/11/08 12:28:12;;;;;;;9.18;3.05;;;;;;;10.55;60.87;95967.03;5024032;28;20049;-75
2021/11/08 12:30:42;;;;;;;17.33;3.60;;;;;;;8.89;66.04;95976.59;5016777;28;20062;-77
2021/11/08 12:33:23;;;;;;;14.98;3.55;;;;;;;9.84;63.90;95970.84;5024900;28;20038;-77
2021/11/08 12:35:49;;;;;;;17.10;3.60;;;;;;;10.82;62.81;95963.44;5021089;28;20526;-76
2021/11/08 12:38:29;;;;;;;12.13;3.50;;;;;;;9.91;62.52;95964.56;5020457;28;20046;-76
2021/11/08 12:41:07;;;;;;;18.90;3.90;;;;;;;8.98;63.98;95969.09;5019314;28;20069;-76
2021/11/08 12:43:32;;;;;;;11.65;3.78;;;;;;;8.49;67.84;95962.78;5022837;28;20042;-77
2021/11/08 12:46:22;;;;;;;16.00;4.22;;;;;;;8.12;68.84;95965.97;5021271;28;20073;-77
2021/11/08 12:48:49;;;;;;;16.52;4.38;;;;;;;7.85;69.86;95962.44;5024901;28;20130;-76
2021/11/08 12:51:17;;;;;;;16.75;4.45;;;;;;;7.83;67.84;95951.41;5024036;28;20053;-76
2021/11/08 12:53:46;;;;;;;14.50;3.50;;;;;;;7.80;71.99;95955.28;5013607;28;21816;-76
2021/11/08 12:56:25;;;;;;;13.73;3.50;;;;;;;7.73;71.89;95947.63;5018062;28;20573;-75
2021/11/08 12:58:56;;;;;;;11.68;3.67;;;;;;;7.58;72.24;95948.16;5025101;28;20785;-75
2021/11/08 13:01:25;;;;;;;13.93;4.30;;;;;;;8.15;71.21;95941.88;5023547;28;20049;-76
2021/11/08 13:03:53;;;;;;;13.40;3.65;;;;;;;7.74;70.91;95940.53;5015951;28;20053;-75
2021/11/08 13:06:27;;;;;;;15.82;3.90;;;;;;;7.14;72.61;95932.31;5016375;28;20111;-75
2021/11/08 13:09:19;;;;;;;18.13;4.35;;;;;;;7.28;70.27;95933.59;5019345;28;20060;-76
2021/11/08 13:11:50;;;;;;;19.83;3.80;;;;;;;7.23;68.86;95935.31;5027701;28;20053;-76
2021/11/08 13:14:35;;;;;;;18.02;3.53;;;;;;;7.09;72.97;95925.13;5025301;28;20041;-76
2021/11/08 13:17:20;;;;;;;10.80;3.85;;;;;;;6.73;74.84;95932.38;5023397;28;20530;-76
2021/11/08 13:19:49;;;;;;;17.40;4.15;;;;;;;6.78;73.62;95933.50;5027348;28;20103;-76
2021/11/08 13:22:23;;;;;;;15.90;4.05;;;;;;;6.82;74.46;95939.84;5027083;28;20099;-77
2021/11/08 13:25:15;;;;;;;;;;;;;;;6.85;75.54;95934.16;5030096;28;20091;-76
2021/11/08 13:27:51;;;;;;;15.10;4.13;;;;;;;6.83;75.79;95928.38;5024966;28;19925;-77